Time;durP1;ratioP1;P1;durP2;ratioP2;P2;SDS_P1;SDS_P2;PMS_P1;PMS_P2;Temp;Humidity;BMP_temperature;BMP_pressure;BME280_temperature;BME280_humidity;BME280_pressure;Samples;Min_cycle;Max_cycle;Signal;HPM_P1;HPM_P2
2023/11/04 00:02:12;;;;;;;3.85;0.63;;;;;;;6.57;92.98;98527.63;5036876;28;20384;-67
2023/11/04 00:04:38;;;;;;;3.10;0.80;;;;;;;6.60;93.22;98525.47;5032998;28;20032;-67
2023/11/04 00:07:04;;;;;;;4.53;0.90;;;;;;;6.70;93.06;98521.78;5033705;28;20029;-67
2023/11/04 00:09:29;;;;;;;1.80;0.60;;;;;;;6.65;92.93;98517.22;5039240;28;20045;-68
2023/11/04 00:11:54;;;;;;;3.42;0.77;;;;;;;6.78;93.13;98517.31;5036083;28;20044;-67
2023/11/04 00:14:20;;;;;;;1.77;0.75;;;;;;;6.83;92.32;98519.31;5036109;28;20048;-67
2023/11/04 00:16:46;;;;;;;3.53;0.68;;;;;;;6.84;92.49;98513.19;5036940;28;20123;-67
2023/11/04 00:19:11;;;;;;;6.70;0.75;;;;;;;6.88;92.40;98511.03;5036753;28;20091;-67
2023/11/04 00:21:41;;;;;;;2.72;0.70;;;;;;;6.81;92.54;98516.13;5035064;28;20029;-67
2023/11/04 00:24:10;;;;;;;1.67;0.70;;;;;;;6.85;92.59;98517.34;5046714;28;20250;-67
2023/11/04 00:26:38;;;;;;;2.40;0.90;;;;;;;6.93;92.58;98511.25;5031630;28;20025;-67
2023/11/04 00:29:05;;;;;;;3.47;0.60;;;;;;;7.01;92.55;98519.66;5034003;28;20036;-67
2023/11/04 00:31:31;;;;;;;4.72;0.95;;;;;;;6.98;92.64;98514.06;5036803;28;20025;-67
2023/11/04 00:34:00;;;;;;;5.82;0.88;;;;;;;6.99;92.87;98515.69;5034008;28;20039;-67
2023/11/04 00:36:26;;;;;;;1.40;0.68;;;;;;;7.05;92.71;98509.75;5022053;28;20047;-67
2023/11/04 00:38:51;;;;;;;2.25;0.50;;;;;;;7.02;92.90;98507.56;5034852;28;20041;-67
2023/11/04 00:41:20;;;;;;;3.38;0.60;;;;;;;6.97;93.33;98499.63;5053409;28;20037;-67
2023/11/04 00:43:46;;;;;;;1.75;0.60;;;;;;;6.93;93.52;98498.38;5058759;28;20040;-67
2023/11/04 00:46:12;;;;;;;1.13;0.77;;;;;;;6.95;93.42;98501.56;5030369;28;20033;-67
2023/11/04 00:48:38;;;;;;;2.75;0.80;;;;;;;6.81;93.84;98504.03;5007362;28;20033;-68
2023/11/04 00:51:04;;;;;;;1.35;0.60;;;;;;;6.85;93.72;98498.53;5044718;28;20041;-67
2023/11/04 00:53:29;;;;;;;6.25;0.70;;;;;;;6.93;93.39;98500.94;5043863;28;20047;-67
2023/11/04 00:55:55;;;;;;;2.60;0.95;;;;;;;6.86;93.44;98502.72;5042667;28;20040;-68
2023/11/04 00:58:20;;;;;;;0.60;0.50;;;;;;;6.95;93.38;98501.56;5044278;28;20048;-68
2023/11/04 01:00:46;;;;;;;0.80;0.70;;;;;;;6.82;93.95;98499.72;5042679;28;20049;-67
2023/11/04 01:03:11;;;;;;;1.83;0.70;;;;;;;6.76;94.66;98503.00;5044570;28;20025;-67
2023/11/04 01:05:37;;;;;;;2.05;0.60;;;;;;;6.73;94.44;98499.03;5040806;28;20447;-67
2023/11/04 01:08:03;;;;;;;2.20;0.45;;;;;;;6.73;94.85;98508.56;5041891;28;20087;-67
2023/11/04 01:10:28;;;;;;;2.78;0.60;;;;;;;6.78;94.28;98509.59;5042520;28;20080;-67
2023/11/04 01:12:54;;;;;;;2.25;0.70;;;;;;;6.75;94.70;98502.22;5033246;28;20056;-67
2023/11/04 01:15:19;;;;;;;1.02;0.45;;;;;;;6.83;94.84;98506.44;5037451;28;20037;-67
2023/11/04 01:17:45;;;;;;;6.22;0.70;;;;;;;6.85;94.49;98493.38;5022588;28;20121;-67
2023/11/04 01:20:11;;;;;;;3.05;1.67;;;;;;;6.88;94.42;98498.16;5024130;28;20029;-67
2023/11/04 01:22:40;;;;;;;1.55;0.45;;;;;;;6.91;94.34;98501.16;5055595;28;20033;-67
2023/11/04 01:25:07;;;;;;;1.48;0.60;;;;;;;6.97;94.13;98497.03;5037238;28;20034;-67
2023/11/04 01:27:36;;;;;;;2.70;0.50;;;;;;;6.96;93.91;98495.44;5022529;28;20041;-67
2023/11/04 01:30:02;;;;;;;3.15;0.55;;;;;;;6.94;94.14;98495.63;5039945;28;20116;-67
2023/11/04 01:32:28;;;;;;;4.70;0.65;;;;;;;6.98;94.13;98494.25;5008058;28;20135;-67
2023/11/04 01:34:54;;;;;;;0.90;0.50;;;;;;;6.97;93.99;98494.47;5025888;28;20022;-67
2023/11/04 01:37:19;;;;;;;0.60;0.40;;;;;;;7.00;94.35;98491.50;5043007;28;20038;-67
2023/11/04 01:39:45;;;;;;;1.05;0.47;;;;;;;7.03;93.61;98488.56;5040562;28;20035;-68
2023/11/04 01:42:11;;;;;;;1.08;0.70;;;;;;;7.06;92.86;98492.50;5024340;28;20079;-67
2023/11/04 01:44:36;;;;;;;2.75;0.50;;;;;;;7.15;92.98;98488.81;5021408;28;20041;-67
2023/11/04 01:47:02;;;;;;;2.17;0.55;;;;;;;7.25;92.09;98484.09;5035755;28;20066;-67
2023/11/04 01:49:28;;;;;;;3.05;0.57;;;;;;;7.17;92.04;98485.03;5009223;28;20048;-67
2023/11/04 01:51:57;;;;;;;0.60;0.40;;;;;;;7.16;92.34;98474.94;5023509;28;20041;-68
2023/11/04 01:54:24;;;;;;;3.42;0.50;;;;;;;7.22;91.92;98472.38;5021750;28;20037;-67
2023/11/04 01:56:50;;;;;;;0.82;0.40;;;;;;;7.26;92.11;98467.66;5004514;28;20033;-67
2023/11/04 01:59:16;;;;;;;0.60;0.45;;;;;;;7.33;91.23;98457.38;5021957;28;20484;-67
2023/11/04 02:01:45;;;;;;;2.45;0.40;;;;;;;7.28;91.22;98457.94;5005283;28;20174;-67
2023/11/04 02:04:12;;;;;;;3.78;0.80;;;;;;;7.25;91.76;98457.53;5022710;28;20025;-67
2023/11/04 02:06:38;;;;;;;1.42;0.32;;;;;;;7.25;91.97;98452.38;5024286;28;20057;-67
2023/11/04 02:09:04;;;;;;;5.32;0.50;;;;;;;7.34;91.77;98449.44;5008000;28;20067;-67
2023/11/04 02:11:32;;;;;;;2.10;0.50;;;;;;;7.39;91.19;98447.09;5021720;28;20617;-67
2023/11/04 02:13:58;;;;;;;4.50;0.43;;;;;;;7.41;91.43;98446.91;5024173;28;20305;-67
2023/11/04 02:16:24;;;;;;;0.85;0.43;;;;;;;7.36;92.19;98444.88;5020716;28;20447;-67
2023/11/04 02:18:49;;;;;;;2.95;0.35;;;;;;;7.26;92.59;98438.50;5024301;28;20514;-68
2023/11/04 02:21:15;;;;;;;3.55;0.70;;;;;;;7.47;91.86;98438.38;5021657;28;20025;-67
2023/11/04 02:23:41;;;;;;;5.97;0.52;;;;;;;7.50;91.44;98439.81;5042856;28;21165;-67
2023/11/04 02:26:07;;;;;;;1.20;0.50;;;;;;;7.51;91.57;98443.94;5033179;28;20051;-67
2023/11/04 02:28:32;;;;;;;0.70;0.43;;;;;;;7.44;91.96;98441.38;5045685;28;20056;-67
2023/11/04 02:30:58;;;;;;;1.17;0.45;;;;;;;7.48;91.91;98434.81;5055321;28;20029;-67
2023/11/04 02:33:24;;;;;;;2.60;0.50;;;;;;;7.50;91.70;98432.06;5040148;28;20511;-67
2023/11/04 02:35:50;;;;;;;2.72;0.60;;;;;;;7.57;91.30;98427.69;5037610;28;20041;-67
2023/11/04 02:38:16;;;;;;;1.73;0.40;;;;;;;7.68;90.82;98423.75;5040117;28;20991;-67
2023/11/04 02:40:45;;;;;;;4.22;0.70;;;;;;;7.66;91.01;98423.16;5024102;28;20135;-67
2023/11/04 02:43:11;;;;;;;2.85;0.60;;;;;;;7.66;91.27;98418.00;5042650;28;20047;-67
2023/11/04 02:45:36;;;;;;;2.85;0.38;;;;;;;7.73;91.30;98427.34;5041022;28;20041;-67
2023/11/04 02:48:02;;;;;;;2.35;0.47;;;;;;;7.77;90.86;98418.22;5056564;28;20040;-67
2023/11/04 02:50:28;;;;;;;6.28;0.60;;;;;;;7.68;91.80;98424.56;5023018;28;20140;-67
2023/11/04 02:52:53;;;;;;;1.67;0.50;;;;;;;7.61;92.49;98418.59;5025355;28;20233;-67
2023/11/04 02:55:19;;;;;;;3.80;0.30;;;;;;;7.67;92.11;98419.63;5022083;28;20399;-68
2023/11/04 02:57:44;;;;;;;1.05;0.32;;;;;;;7.68;92.17;98424.56;5038098;28;20040;-67
2023/11/04 03:00:11;;;;;;;2.00;0.50;;;;;;;7.69;92.28;98412.47;5041015;28;20037;-67
2023/11/04 03:02:36;;;;;;;1.85;0.60;;;;;;;7.77;91.65;98409.69;5036652;28;20037;-67
2023/11/04 03:05:04;;;;;;;1.58;0.60;;;;;;;7.79;91.82;98399.97;5040722;28;20091;-68
2023/11/04 03:07:30;;;;;;;2.78;0.50;;;;;;;7.63;92.95;98408.88;5040733;28;20059;-67
2023/11/04 03:09:55;;;;;;;2.10;0.50;;;;;;;7.74;92.67;98407.50;5036628;28;20159;-67
2023/11/04 03:12:21;;;;;;;1.88;0.38;;;;;;;7.79;92.73;98398.19;5042239;28;20024;-67
2023/11/04 03:14:46;;;;;;;3.30;0.50;;;;;;;7.71;93.31;98398.38;5041638;28;20065;-68
2023/11/04 03:17:12;;;;;;;0.57;0.40;;;;;;;7.71;93.95;98400.16;5039552;28;20175;-67
2023/11/04 03:19:38;;;;;;;2.58;0.40;;;;;;;7.74;93.92;98394.59;5023008;28;20033;-68
2023/11/04 03:22:03;;;;;;;2.25;0.40;;;;;;;7.77;94.27;98396.81;5036178;28;20624;-67
2023/11/04 03:24:29;;;;;;;1.33;0.55;;;;;;;7.78;94.53;98388.09;5040925;28;20028;-67
2023/11/04 03:26:55;;;;;;;2.33;0.75;;;;;;;7.96;95.04;98395.22;5037089;28;20407;-67
2023/11/04 03:29:20;;;;;;;5.13;0.65;;;;;;;7.88;94.82;98385.91;5041681;28;20037;-67
2023/11/04 03:31:46;;;;;;;4.45;0.77;;;;;;;8.02;94.44;98394.44;5037395;28;20072;-67
2023/11/04 03:34:13;;;;;;;1.10;0.38;;;;;;;8.02;94.04;98389.28;5039815;28;20414;-67
2023/11/04 03:36:38;;;;;;;1.60;0.45;;;;;;;8.04;94.86;98392.44;5038086;28;20041;-67
2023/11/04 03:39:04;;;;;;;2.58;0.70;;;;;;;8.06;94.45;98393.06;5055948;28;20032;-67
2023/11/04 03:41:29;;;;;;;5.35;0.80;;;;;;;8.05;94.80;98381.16;5041120;28;20041;-67
2023/11/04 03:43:55;;;;;;;2.53;0.47;;;;;;;8.06;95.22;98375.00;5038366;28;20491;-67
2023/11/04 03:46:20;;;;;;;5.32;0.40;;;;;;;8.04;95.46;98379.53;5039960;28;20057;-68
2023/11/04 03:48:47;;;;;;;1.83;0.80;;;;;;;8.16;94.98;98380.56;5028126;28;20082;-67
2023/11/04 03:51:13;;;;;;;3.50;1.30;;;;;;;8.15;95.62;98375.59;5039483;28;20059;-67
2023/11/04 03:53:39;;;;;;;1.52;0.50;;;;;;;8.18;95.84;98372.63;5038211;28;20029;-67
2023/11/04 03:56:05;;;;;;;1.23;0.50;;;;;;;8.13;96.00;98364.66;5039564;28;20041;-67
2023/11/04 03:58:30;;;;;;;4.15;0.65;;;;;;;8.18;96.31;98362.28;5039585;28;20040;-67
2023/11/04 04:00:56;;;;;;;2.08;0.60;;;;;;;8.30;95.96;98359.88;5036539;28;20037;-67
2023/11/04 04:03:22;;;;;;;2.42;0.80;;;;;;;8.24;96.10;98351.16;5041139;28;20891;-67
2023/11/04 04:05:47;;;;;;;3.10;0.70;;;;;;;8.23;96.69;98354.75;5041829;28;20118;-68
2023/11/04 04:08:15;;;;;;;3.55;0.60;;;;;;;8.19;97.01;98359.50;5039926;28;20039;-68
2023/11/04 04:10:41;;;;;;;1.60;0.60;;;;;;;8.25;98.55;98363.09;5039928;28;20029;-68
2023/11/04 04:13:06;;;;;;;3.72;0.95;;;;;;;8.27;98.56;98350.75;5036888;28;20415;-68
2023/11/04 04:15:32;;;;;;;1.25;0.40;;;;;;;8.30;98.66;98359.88;5040631;28;20029;-67
2023/11/04 04:17:57;;;;;;;1.50;0.57;;;;;;;8.33;98.79;98357.69;5040785;28;20455;-67
2023/11/04 04:20:23;;;;;;;4.13;0.50;;;;;;;8.37;99.33;98351.13;5037003;28;20335;-67
2023/11/04 04:22:49;;;;;;;0.75;0.45;;;;;;;8.39;99.65;98343.97;5040155;28;20035;-67
2023/11/04 04:25:14;;;;;;;2.80;0.60;;;;;;;8.50;99.08;98352.16;5040391;28;20504;-68
2023/11/04 04:27:40;;;;;;;2.05;0.60;;;;;;;8.38;98.93;98347.56;5028199;28;20029;-67
2023/11/04 04:30:09;;;;;;;1.88;0.60;;;;;;;8.35;99.70;98347.97;5040612;28;20130;-67
2023/11/04 04:32:34;;;;;;;4.55;0.70;;;;;;;8.39;99.37;98345.78;5038418;28;20167;-67
2023/11/04 04:35:03;;;;;;;2.92;0.57;;;;;;;8.32;99.30;98343.19;5040620;28;20048;-67
2023/11/04 04:37:29;;;;;;;2.05;0.80;;;;;;;8.28;99.94;98336.84;5041234;28;20033;-67
2023/11/04 04:39:55;;;;;;;7.05;1.15;;;;;;;8.39;99.54;98336.22;5038034;28;20131;-67
2023/11/04 04:42:20;;;;;;;3.35;0.68;;;;;;;8.38;99.44;98331.25;5042353;28;20183;-68
2023/11/04 04:44:46;;;;;;;1.70;0.70;;;;;;;8.39;99.02;98330.28;5035660;28;20479;-67
2023/11/04 04:47:11;;;;;;;3.50;1.13;;;;;;;8.43;99.47;98322.97;5022270;28;20091;-67
2023/11/04 04:49:37;;;;;;;5.60;1.00;;;;;;;8.41;98.74;98317.19;5020952;28;20037;-67
2023/11/04 04:52:03;;;;;;;1.00;0.43;;;;;;;8.31;99.77;98315.00;5040462;28;20048;-67
2023/11/04 04:54:31;;;;;;;0.82;0.50;;;;;;;8.38;98.90;98306.25;5039133;28;20029;-67
2023/11/04 04:56:58;;;;;;;1.08;0.43;;;;;;;8.36;99.47;98302.28;5023796;28;20107;-68
2023/11/04 04:59:23;;;;;;;1.17;0.70;;;;;;;8.41;98.45;98301.69;5041158;28;20025;-68
2023/11/04 05:01:49;;;;;;;2.47;0.80;;;;;;;8.43;98.65;98303.09;5035728;28;20111;-68
2023/11/04 05:04:14;;;;;;;3.20;0.65;;;;;;;8.32;98.97;98303.69;5038079;28;20483;-67
2023/11/04 05:06:40;;;;;;;0.80;0.52;;;;;;;8.27;98.87;98301.72;5019504;28;20044;-67
2023/11/04 05:09:06;;;;;;;2.03;0.70;;;;;;;8.23;99.10;98292.78;5018691;28;20110;-68
2023/11/04 05:11:32;;;;;;;1.27;0.52;;;;;;;8.27;99.63;98293.16;5021021;28;20045;-68
2023/11/04 05:13:58;;;;;;;3.22;0.70;;;;;;;8.29;99.31;98286.81;5022385;28;20129;-68
2023/11/04 05:16:23;;;;;;;2.78;0.70;;;;;;;8.28;99.68;98282.63;5020060;28;20098;-67
2023/11/04 05:18:49;;;;;;;4.40;0.90;;;;;;;8.31;99.56;98279.66;5021555;28;20042;-68
2023/11/04 05:21:18;;;;;;;3.13;0.77;;;;;;;8.28;99.49;98280.03;5034116;28;20065;-67
2023/11/04 05:23:43;;;;;;;2.28;0.90;;;;;;;8.22;99.64;98282.66;5054140;28;20048;-68
2023/11/04 05:26:09;;;;;;;5.55;0.70;;;;;;;8.17;100.00;98278.09;5026649;28;20053;-68
2023/11/04 05:28:34;;;;;;;3.28;0.88;;;;;;;8.18;100.00;98275.31;5022798;28;20032;-67
2023/11/04 05:31:00;;;;;;;0.95;0.50;;;;;;;8.30;99.99;98272.88;5023198;28;20042;-68
2023/11/04 05:33:26;;;;;;;1.88;0.65;;;;;;;8.15;99.98;98269.75;5022453;28;20032;-68
2023/11/04 05:35:52;;;;;;;2.15;0.60;;;;;;;8.10;100.00;98272.13;5024979;28;20038;-68
2023/11/04 05:38:17;;;;;;;2.90;0.63;;;;;;;8.09;100.00;98271.34;5024016;28;20044;-68
2023/11/04 05:40:43;;;;;;;1.80;0.60;;;;;;;7.90;100.00;98265.22;5023129;28;20040;-68
2023/11/04 05:43:11;;;;;;;2.30;0.73;;;;;;;7.99;100.00;98261.44;5021888;28;20029;-68
2023/11/04 05:45:37;;;;;;;2.67;0.47;;;;;;;8.08;99.78;98269.78;5024198;28;20137;-67
2023/11/04 05:48:03;;;;;;;3.15;0.80;;;;;;;7.93;100.00;98264.00;5022734;28;20340;-68
2023/11/04 05:50:29;;;;;;;2.80;0.80;;;;;;;7.93;100.00;98264.81;5030483;28;20407;-68
2023/11/04 05:52:55;;;;;;;1.35;0.60;;;;;;;7.92;100.00;98246.97;5053570;28;20021;-68
2023/11/04 05:55:20;;;;;;;3.38;0.52;;;;;;;7.96;100.00;98246.34;5033235;28;20041;-68
2023/11/04 05:57:46;;;;;;;0.70;0.50;;;;;;;8.01;99.89;98243.19;5007204;28;20025;-68
2023/11/04 06:00:12;;;;;;;1.80;0.60;;;;;;;7.93;100.00;98235.63;5024070;28;20556;-68
2023/11/04 06:02:38;;;;;;;2.95;1.17;;;;;;;7.90;99.95;98230.88;5038877;28;20077;-68
2023/11/04 06:05:12;;;;;;;5.10;0.65;;;;;;;7.84;100.00;98227.31;5040205;28;20526;-68
2023/11/04 06:07:38;;;;;;;1.02;0.40;;;;;;;7.88;100.00;98217.41;5042129;28;20083;-67
2023/11/04 06:10:08;;;;;;;4.68;0.73;;;;;;;7.74;100.00;98214.03;5039235;28;20045;-68
2023/11/04 06:12:37;;;;;;;5.70;0.57;;;;;;;7.69;100.00;98211.28;5041096;28;20048;-68
2023/11/04 06:15:03;;;;;;;2.28;0.57;;;;;;;7.70;100.00;98212.84;5041859;28;20106;-68
2023/11/04 06:17:28;;;;;;;2.40;0.50;;;;;;;7.62;100.00;98210.47;5042714;28;20475;-67
2023/11/04 06:19:54;;;;;;;3.97;0.65;;;;;;;7.52;100.00;98206.50;5040366;28;20086;-68
2023/11/04 06:22:20;;;;;;;1.60;0.60;;;;;;;7.64;100.00;98200.75;5040770;28;20455;-68
2023/11/04 06:24:46;;;;;;;3.63;0.50;;;;;;;7.59;100.00;98206.50;5055970;28;20044;-68
2023/11/04 06:27:11;;;;;;;3.83;0.60;;;;;;;7.50;100.00;98205.91;5037505;28;20041;-68
2023/11/04 06:29:37;;;;;;;1.80;0.50;;;;;;;7.53;100.00;98202.94;5037543;28;20045;-67
2023/11/04 06:32:02;;;;;;;0.57;0.30;;;;;;;7.49;100.00;98195.78;5038500;28;20052;-68
2023/11/04 06:34:28;;;;;;;1.75;0.52;;;;;;;7.42;100.00;98198.38;5040240;28;20033;-68
2023/11/04 06:36:54;;;;;;;0.52;0.32;;;;;;;7.45;100.00;98199.78;5038234;28;20052;-67
2023/11/04 06:39:19;;;;;;;1.95;0.40;;;;;;;7.45;100.00;98197.19;5038679;28;20057;-67
2023/11/04 06:41:45;;;;;;;0.50;0.40;;;;;;;7.39;100.00;98199.56;5039835;28;20064;-68
2023/11/04 06:44:11;;;;;;;4.20;0.50;;;;;;;7.39;100.00;98194.41;5042343;28;20048;-67
2023/11/04 06:46:39;;;;;;;0.85;0.30;;;;;;;7.36;100.00;98204.31;5039389;28;20491;-68
2023/11/04 06:49:05;;;;;;;1.40;0.38;;;;;;;7.38;100.00;98186.88;5042876;28;20044;-68
2023/11/04 06:51:31;;;;;;;1.10;0.50;;;;;;;7.41;100.00;98187.25;5037351;28;20043;-68
2023/11/04 06:53:57;;;;;;;3.22;0.43;;;;;;;7.46;100.00;98188.44;5042655;28;20139;-67
2023/11/04 06:56:26;;;;;;;0.68;0.40;;;;;;;7.48;100.00;98196.78;5041400;28;20037;-67
2023/11/04 06:58:53;;;;;;;1.58;0.40;;;;;;;7.54;100.00;98185.69;5037701;28;20482;-67
2023/11/04 07:01:19;;;;;;;2.22;0.30;;;;;;;7.53;100.00;98181.50;5040464;28;20735;-67
2023/11/04 07:03:47;;;;;;;1.13;0.40;;;;;;;7.54;100.00;98181.31;5041263;28;20048;-67
2023/11/04 07:06:17;;;;;;;1.00;0.40;;;;;;;7.55;100.00;98167.44;5039805;28;20482;-68
2023/11/04 07:08:43;;;;;;;2.15;0.50;;;;;;;7.54;100.00;98168.41;5043326;28;20048;-67
2023/11/04 07:11:12;;;;;;;2.03;0.63;;;;;;;7.67;100.00;98161.69;5040566;28;20064;-68
2023/11/04 07:13:38;;;;;;;3.20;0.43;;;;;;;7.60;100.00;98157.28;5042548;28;20085;-67
2023/11/04 07:16:08;;;;;;;1.15;0.40;;;;;;;7.59;100.00;98162.66;5039071;28;20120;-67
2023/11/04 07:18:33;;;;;;;1.40;0.40;;;;;;;7.62;100.00;98156.31;5038411;28;20067;-68
2023/11/04 07:20:59;;;;;;;2.15;0.90;;;;;;;7.75;100.00;98158.88;5040121;28;20407;-67
2023/11/04 07:23:25;;;;;;;1.52;0.82;;;;;;;7.73;100.00;98148.75;5040678;28;20025;-67
2023/11/04 07:25:51;;;;;;;1.25;0.50;;;;;;;7.68;100.00;98145.19;5042472;28;20032;-68
2023/11/04 07:28:16;;;;;;;0.95;0.47;;;;;;;7.79;100.00;98147.94;5037486;28;20479;-67
2023/11/04 07:30:42;;;;;;;0.90;0.70;;;;;;;7.82;100.00;98140.78;5039512;28;20033;-68
2023/11/04 07:33:07;;;;;;;1.52;0.55;;;;;;;7.89;100.00;98150.13;5038077;28;20483;-67
2023/11/04 07:35:33;;;;;;;1.55;0.57;;;;;;;7.88;100.00;98135.63;5037163;28;20056;-67
2023/11/04 07:37:58;;;;;;;1.33;0.52;;;;;;;7.98;100.00;98130.03;5039981;28;20040;-68
2023/11/04 07:40:24;;;;;;;2.47;0.60;;;;;;;7.96;100.00;98130.22;5038337;28;20032;-67
2023/11/04 07:42:50;;;;;;;1.23;0.40;;;;;;;8.03;100.00;98130.22;5039704;28;20384;-68
2023/11/04 07:45:16;;;;;;;1.67;0.70;;;;;;;8.08;100.00;98127.81;5057160;28;20503;-68
2023/11/04 07:47:45;;;;;;;0.88;0.50;;;;;;;8.13;100.00;98132.34;5036803;28;20033;-67
2023/11/04 07:50:12;;;;;;;3.53;0.82;;;;;;;8.14;100.00;98114.09;5035831;28;20040;-67
2023/11/04 07:52:41;;;;;;;0.88;0.50;;;;;;;8.20;100.00;98120.22;5038087;28;20509;-67
2023/11/04 07:55:09;;;;;;;0.40;0.40;;;;;;;8.24;100.00;98108.47;5036891;28;20485;-67
2023/11/04 07:57:38;;;;;;;1.58;0.80;;;;;;;8.26;100.00;98105.69;5038254;28;20377;-67
2023/11/04 08:00:13;;;;;;;1.30;0.80;;;;;;;8.32;100.00;98102.28;5039206;28;20060;-66
2023/11/04 08:02:38;;;;;;;1.30;0.50;;;;;;;8.39;100.00;98103.03;5040469;28;20043;-67
2023/11/04 08:05:04;;;;;;;1.65;0.70;;;;;;;8.39;100.00;98095.28;5033917;28;20041;-67
2023/11/04 08:07:37;;;;;;;1.42;0.60;;;;;;;8.30;100.00;98094.72;5039673;28;20496;-68
2023/11/04 08:10:04;;;;;;;;;;;;;;;8.41;100.00;98095.09;5034394;28;20035;-70
2023/11/04 08:12:29;;;;;;;0.57;0.50;;;;;;;8.47;100.00;98084.75;5039869;28;19920;-67
2023/11/04 08:14:55;;;;;;;0.77;0.47;;;;;;;8.53;100.00;98096.03;5040801;28;20441;-68
2023/11/04 08:17:21;;;;;;;0.63;0.40;;;;;;;8.53;100.00;98083.13;5019222;23;20050;-68
2023/11/04 08:19:47;;;;;;;2.17;0.68;;;;;;;8.51;100.00;98074.78;4999686;28;20407;-67
2023/11/04 08:22:15;;;;;;;1.05;0.50;;;;;;;8.63;100.00;98065.38;5007568;28;20037;-68
2023/11/04 08:24:42;;;;;;;2.45;0.40;;;;;;;8.58;100.00;98054.88;5024745;28;20087;-69
2023/11/04 08:27:11;;;;;;;3.80;0.50;;;;;;;8.63;100.00;98052.47;5013501;28;20057;-67
2023/11/04 08:29:39;;;;;;;1.08;0.38;;;;;;;8.67;100.00;98047.66;5020104;28;20037;-67
2023/11/04 08:32:04;;;;;;;3.03;0.60;;;;;;;8.74;99.55;98036.28;5039713;28;20127;-68
2023/11/04 08:34:30;;;;;;;1.20;0.45;;;;;;;8.66;100.00;98033.16;5024246;28;20116;-68
2023/11/04 08:36:55;;;;;;;4.40;0.50;;;;;;;8.72;99.72;98030.53;5018579;28;20511;-68
2023/11/04 08:39:21;;;;;;;0.70;0.57;;;;;;;8.80;98.73;98021.72;5021361;28;20030;-68
2023/11/04 08:41:46;;;;;;;1.95;0.60;;;;;;;8.75;98.98;98014.59;5034224;28;20033;-67
2023/11/04 08:44:12;;;;;;;2.80;0.70;;;;;;;8.90;98.27;98008.31;5041693;28;20029;-67
2023/11/04 08:46:39;;;;;;;5.25;0.40;;;;;;;9.06;97.38;97997.44;5008228;28;20041;-68
2023/11/04 08:49:06;;;;;;;2.67;0.60;;;;;;;9.10;97.38;97990.06;5022630;28;20037;-68
2023/11/04 08:51:34;;;;;;;0.30;0.30;;;;;;;9.21;97.34;97985.94;5004213;28;20037;-68
2023/11/04 08:54:00;;;;;;;4.18;0.63;;;;;;;9.15;98.01;97987.59;5006335;28;20033;-67
2023/11/04 08:56:26;;;;;;;1.52;0.88;;;;;;;9.15;98.57;97974.66;5019648;28;20042;-68
2023/11/04 08:58:53;;;;;;;1.00;0.70;;;;;;;9.04;99.04;97968.44;5002393;28;20042;-67
2023/11/04 09:01:21;;;;;;;2.53;0.88;;;;;;;9.10;99.13;97971.97;5024004;28;20635;-67
2023/11/04 09:03:48;;;;;;;2.75;0.85;;;;;;;9.04;99.42;97960.69;5007202;28;20057;-67
2023/11/04 09:06:14;;;;;;;4.65;1.30;;;;;;;8.91;100.00;97953.84;5019505;28;20033;-68
2023/11/04 09:08:43;;;;;;;5.30;0.90;;;;;;;9.05;100.00;97956.28;5022187;28;20040;-68
2023/11/04 09:11:08;;;;;;;2.03;0.80;;;;;;;9.07;100.00;97949.91;5022592;28;20037;-68
2023/11/04 09:13:34;;;;;;;5.80;0.80;;;;;;;9.09;99.86;97947.88;5010252;28;20034;-67
2023/11/04 09:15:59;;;;;;;1.83;1.08;;;;;;;9.04;100.00;97947.75;5022620;28;20503;-68
2023/11/04 09:18:25;;;;;;;5.45;1.08;;;;;;;9.11;100.00;97937.34;4986756;28;20029;-68
2023/11/04 09:20:50;;;;;;;2.90;0.90;;;;;;;9.05;100.00;97938.97;5022366;28;20407;-67
2023/11/04 09:23:19;;;;;;;2.67;0.80;;;;;;;9.14;100.00;97935.09;5025765;28;20418;-68
2023/11/04 09:25:44;;;;;;;2.88;1.58;;;;;;;9.42;99.07;97928.63;5018276;28;20065;-67
2023/11/04 09:28:10;;;;;;;3.75;1.77;;;;;;;9.36;98.15;97937.22;5003034;28;20451;-67
2023/11/04 09:30:35;;;;;;;1.13;1.02;;;;;;;9.48;98.70;97932.13;5019595;28;20037;-67
2023/11/04 09:33:01;;;;;;;2.95;0.90;;;;;;;9.43;98.22;97922.44;4990815;28;20041;-67
2023/11/04 09:35:26;;;;;;;4.45;0.80;;;;;;;9.56;97.89;97921.47;5003805;28;20040;-67
2023/11/04 09:37:52;;;;;;;3.38;0.90;;;;;;;9.73;97.35;97908.72;5023825;28;20565;-67
2023/11/04 09:40:17;;;;;;;2.13;0.98;;;;;;;9.74;96.62;97905.91;5000865;28;20116;-68
2023/11/04 09:42:47;;;;;;;4.78;1.20;;;;;;;9.82;96.39;97904.81;5020569;28;20048;-68
2023/11/04 09:45:12;;;;;;;3.72;0.95;;;;;;;9.84;96.83;97899.41;5020114;28;20037;-67
2023/11/04 09:47:38;;;;;;;1.65;0.82;;;;;;;9.88;95.67;97897.94;5021393;28;20041;-68
2023/11/04 09:50:07;;;;;;;1.90;0.60;;;;;;;10.02;94.60;97901.94;5019571;28;20037;-67
2023/11/04 09:52:37;;;;;;;1.98;0.80;;;;;;;10.16;94.57;97888.78;5025554;28;20041;-67
2023/11/04 09:55:05;;;;;;;3.28;1.00;;;;;;;10.29;94.06;97886.75;5019922;28;20038;-67
2023/11/04 09:57:32;;;;;;;2.22;0.95;;;;;;;10.30;94.04;97884.94;5007733;28;20044;-66
2023/11/04 10:00:00;;;;;;;3.53;0.85;;;;;;;10.33;94.10;97887.91;5005227;28;20049;-67
2023/11/04 10:02:26;;;;;;;1.08;0.70;;;;;;;10.47;93.94;97885.09;5024087;28;20045;-67
2023/11/04 10:04:52;;;;;;;5.03;1.00;;;;;;;10.54;92.80;97879.81;5005311;28;20037;-66
2023/11/04 10:07:18;;;;;;;1.27;0.73;;;;;;;10.51;93.02;97878.47;4989483;28;20049;-67
2023/11/04 10:09:44;;;;;;;5.22;1.05;;;;;;;10.46;93.43;97870.56;5003974;28;20434;-67
2023/11/04 10:12:09;;;;;;;3.72;1.08;;;;;;;10.47;92.96;97862.59;5001261;28;20037;-67
2023/11/04 10:14:35;;;;;;;2.38;1.08;;;;;;;10.43;91.72;97850.28;5023222;28;20041;-67
2023/11/04 10:17:00;;;;;;;3.20;0.80;;;;;;;10.46;91.03;97855.03;5004157;28;20184;-67
2023/11/04 10:19:26;;;;;;;1.05;0.63;;;;;;;10.39;91.26;97844.00;5023801;28;20065;-67
2023/11/04 10:21:53;;;;;;;3.63;0.77;;;;;;;10.47;89.88;97836.69;5004164;28;20128;-69
2023/11/04 10:24:21;;;;;;;1.80;0.65;;;;;;;10.37;89.09;97828.69;4990622;28;20034;-67
2023/11/04 10:26:50;;;;;;;2.28;0.73;;;;;;;10.46;88.50;97818.75;5022563;28;20041;-68
2023/11/04 10:29:15;;;;;;;5.38;0.57;;;;;;;10.46;88.24;97816.97;5022963;28;20030;-68
2023/11/04 10:31:42;;;;;;;1.50;0.73;;;;;;;10.45;88.32;97802.44;5025828;28;20037;-68
2023/11/04 10:34:10;;;;;;;1.13;0.50;;;;;;;10.51;86.17;97788.56;5020936;28;20120;-69
2023/11/04 10:36:37;;;;;;;3.50;0.80;;;;;;;10.50;86.06;97781.81;5020209;28;20040;-67
2023/11/04 10:39:11;;;;;;;1.65;0.57;;;;;;;10.47;85.10;97778.88;5022575;28;20403;-67
2023/11/04 10:41:44;;;;;;;1.63;0.70;;;;;;;10.44;85.72;97772.34;5021177;28;20041;-67
2023/11/04 10:44:26;;;;;;;5.68;0.88;;;;;;;10.45;85.37;97761.00;5019907;28;20499;-68
2023/11/04 10:46:59;;;;;;;2.93;0.70;;;;;;;10.44;84.76;97751.63;5021088;28;20045;-68
2023/11/04 10:49:45;;;;;;;5.82;0.80;;;;;;;10.53;84.33;97749.47;5019015;28;20032;-67
2023/11/04 10:52:13;;;;;;;2.90;0.65;;;;;;;10.49;83.38;97741.38;5043340;28;20064;-67
2023/11/04 10:55:00;;;;;;;3.05;0.85;;;;;;;10.40;83.85;97726.44;5039252;28;20025;-68
2023/11/04 10:57:36;;;;;;;6.80;1.40;;;;;;;10.42;82.80;97720.00;5021062;28;20025;-68
2023/11/04 11:00:06;;;;;;;2.20;0.70;;;;;;;10.45;82.66;97708.38;5023879;28;20083;-67
2023/11/04 11:02:35;;;;;;;2.85;0.68;;;;;;;10.46;81.98;97695.19;5040431;28;20415;-67
2023/11/04 11:05:01;;;;;;;5.32;0.70;;;;;;;10.41;81.92;97684.75;5007999;28;20045;-67
2023/11/04 11:07:27;;;;;;;3.55;0.80;;;;;;;10.29;82.76;97683.97;5025325;28;20039;-67
2023/11/04 11:09:53;;;;;;;2.60;0.90;;;;;;;10.25;85.03;97682.88;5042285;28;20051;-68
2023/11/04 11:12:22;;;;;;;7.20;0.98;;;;;;;10.18;86.91;97677.81;5022452;28;20123;-68
2023/11/04 11:14:50;;;;;;;6.65;1.38;;;;;;;10.06;88.86;97682.22;5038977;28;20456;-68
2023/11/04 11:17:16;;;;;;;5.75;1.33;;;;;;;10.02;91.55;97676.72;5042401;28;20037;-68
2023/11/04 11:19:51;;;;;;;6.93;0.80;;;;;;;9.90;93.48;97671.53;5041441;28;20502;-68
2023/11/04 11:22:23;;;;;;;9.70;1.00;;;;;;;9.78;95.32;97668.19;5039527;28;20049;-68
2023/11/04 11:24:56;;;;;;;3.95;1.17;;;;;;;9.66;96.97;97655.28;5023700;28;20037;-68
2023/11/04 11:27:23;;;;;;;3.30;1.00;;;;;;;9.40;98.81;97646.16;5041889;28;20032;-67
2023/11/04 11:29:49;;;;;;;7.88;1.17;;;;;;;9.35;100.00;97640.88;5026643;28;20502;-68
2023/11/04 11:32:16;;;;;;;7.35;1.30;;;;;;;9.30;100.00;97633.78;5006050;28;20118;-68
2023/11/04 11:34:49;;;;;;;6.03;0.90;;;;;;;9.29;100.00;97623.69;5023059;28;20592;-68
2023/11/04 11:37:25;;;;;;;4.22;1.15;;;;;;;9.23;100.00;97609.84;5022923;28;20119;-68